Time;durP1;ratioP1;P1;durP2;ratioP2;P2;SDS_P1;SDS_P2;PMS_P1;PMS_P2;Temp;Humidity;BMP_temperature;BMP_pressure;BME280_temperature;BME280_humidity;BME280_pressure;Samples;Min_cycle;Max_cycle;Signal;HPM_P1;HPM_P2
2022/07/10 00:02:03;;;;;;;;;;;23.50;54.40;;;;;;5013185;28;19945;-62
2022/07/10 00:04:28;;;;;;;;;;;23.50;53.80;;;;;;5013132;28;19910;-62
2022/07/10 00:06:55;;;;;;;;;;;23.50;54.30;;;;;;5013500;28;19910;-61
2022/07/10 00:09:22;;;;;;;;;;;23.30;55.60;;;;;;5012869;28;19929;-61
2022/07/10 00:11:47;;;;;;;;;;;23.10;55.50;;;;;;5013082;28;20411;-60
2022/07/10 00:14:13;;;;;;;;;;;22.90;56.20;;;;;;5013098;28;19913;-62
2022/07/10 00:16:38;;;;;;;;;;;22.90;56.60;;;;;;5013014;28;19917;-62
2022/07/10 00:19:04;;;;;;;;;;;22.80;56.60;;;;;;5012910;28;19926;-62
2022/07/10 00:21:30;;;;;;;;;;;23.00;55.80;;;;;;5013007;28;19981;-61
2022/07/10 00:23:55;;;;;;;;;;;23.20;55.40;;;;;;5012832;28;19917;-60
2022/07/10 00:26:21;;;;;;;;;;;23.30;55.30;;;;;;5012700;28;19909;-60
2022/07/10 00:28:46;;;;;;;;;;;23.30;55.40;;;;;;5012839;28;19914;-61
2022/07/10 00:31:12;;;;;;;;;;;23.30;55.60;;;;;;5012912;28;19914;-62
2022/07/10 00:33:37;;;;;;;;;;;23.30;55.60;;;;;;5012756;28;20362;-61
2022/07/10 00:36:05;;;;;;;;;;;23.40;55.50;;;;;;5012807;28;19937;-60
2022/07/10 00:38:30;;;;;;;;;;;23.20;56.10;;;;;;5012580;28;19921;-61
2022/07/10 00:40:56;;;;;;;;;;;23.00;57.00;;;;;;5012579;28;20382;-63
2022/07/10 00:43:21;;;;;;;;;;;22.90;57.80;;;;;;5012812;28;20052;-60
2022/07/10 00:45:48;;;;;;;;;;;22.70;58.20;;;;;;5012486;28;19956;-61
2022/07/10 00:48:13;;;;;;;;;;;22.60;58.50;;;;;;5011882;28;20365;-60
2022/07/10 00:50:40;;;;;;;;;;;22.60;58.50;;;;;;5012389;28;19921;-61
2022/07/10 00:53:05;;;;;;;;;;;22.60;58.60;;;;;;5012516;28;20354;-60
2022/07/10 00:55:32;;;;;;;;;;;22.90;57.20;;;;;;5012387;28;19913;-60
2022/07/10 00:57:58;;;;;;;;;;;23.10;56.80;;;;;;5012300;28;19917;-63
2022/07/10 01:00:24;;;;;;;;;;;23.20;56.90;;;;;;5012462;28;19918;-60
2022/07/10 01:02:49;;;;;;;;;;;23.20;57.00;;;;;;5012269;28;19921;-64
2022/07/10 01:05:15;;;;;;;;;;;23.10;57.60;;;;;;5012172;28;19967;-63
2022/07/10 01:07:41;;;;;;;;;;;23.00;57.90;;;;;;5012367;28;19910;-63
2022/07/10 01:10:06;;;;;;;;;;;23.00;58.20;;;;;;5012004;28;20004;-64
2022/07/10 01:12:32;;;;;;;;;;;22.90;58.60;;;;;;5012178;28;20330;-63
2022/07/10 01:14:58;;;;;;;;;;;22.70;59.10;;;;;;5012115;28;19932;-67
2022/07/10 01:17:25;;;;;;;;;;;22.70;59.40;;;;;;5012248;28;19910;-64
2022/07/10 01:19:50;;;;;;;;;;;22.90;58.70;;;;;;5012102;28;19972;-65
2022/07/10 01:22:16;;;;;;;;;;;23.10;58.10;;;;;;4998261;28;19914;-63
2022/07/10 01:24:42;;;;;;;;;;;23.10;58.40;;;;;;5012263;28;20004;-63
2022/07/10 01:27:08;;;;;;;;;;;22.90;58.90;;;;;;5013684;28;19978;-61
2022/07/10 01:29:34;;;;;;;;;;;22.70;59.60;;;;;;5013522;28;19966;-63
2022/07/10 01:32:01;;;;;;;;;;;22.50;60.10;;;;;;5012836;28;19916;-62
2022/07/10 01:34:26;;;;;;;;;;;22.70;59.60;;;;;;5012515;28;19913;-62
2022/07/10 01:36:52;;;;;;;;;;;22.90;58.70;;;;;;5012110;28;19964;-61
2022/07/10 01:39:17;;;;;;;;;;;22.90;58.80;;;;;;5012629;28;19922;-63
2022/07/10 01:41:43;;;;;;;;;;;22.70;59.10;;;;;;5012053;28;19916;-69
2022/07/10 01:44:08;;;;;;;;;;;22.80;58.90;;;;;;5011825;28;19972;-71
2022/07/10 01:46:34;;;;;;;;;;;23.00;58.50;;;;;;5012011;28;19995;-70
2022/07/10 01:48:59;;;;;;;;;;;23.10;58.10;;;;;;5011588;28;19917;-70
2022/07/10 01:51:25;;;;;;;;;;;23.20;57.80;;;;;;5011916;28;19920;-70
2022/07/10 01:53:50;;;;;;;;;;;23.30;57.80;;;;;;5011816;28;20285;-70
2022/07/10 01:56:16;;;;;;;;;;;23.30;58.30;;;;;;5011648;28;19949;-70
2022/07/10 01:58:42;;;;;;;;;;;23.10;58.80;;;;;;5011648;28;20020;-71
2022/07/10 02:01:08;;;;;;;;;;;23.00;59.20;;;;;;5014427;28;19914;-70
2022/07/10 02:06:18;;;;;;;;;;;22.60;61.00;;;;;;5015652;28;19971;-69
2022/07/10 02:08:44;;;;;;;;;;;22.50;61.40;;;;;;5015479;28;19922;-70
2022/07/10 02:11:10;;;;;;;;;;;22.50;61.20;;;;;;5015412;28;20377;-71
2022/07/10 02:13:35;;;;;;;;;;;22.50;61.40;;;;;;5015432;28;19944;-70
2022/07/10 02:16:01;;;;;;;;;;;22.50;60.80;;;;;;5015242;28;19910;-70
2022/07/10 02:18:26;;;;;;;;;;;22.50;61.40;;;;;;5015154;28;19921;-67
2022/07/10 02:20:52;;;;;;;;;;;22.50;61.90;;;;;;5015244;28;20353;-71
2022/07/10 02:23:18;;;;;;;;;;;22.50;62.90;;;;;;5015261;28;19980;-69
2022/07/10 02:25:44;;;;;;;;;;;22.50;63.60;;;;;;5015107;28;19937;-69
2022/07/10 02:28:09;;;;;;;;;;;22.50;64.20;;;;;;5015104;28;19910;-70
2022/07/10 02:30:35;;;;;;;;;;;22.50;64.40;;;;;;5015227;28;19910;-64
2022/07/10 02:33:00;;;;;;;;;;;22.50;64.20;;;;;;5015124;28;20020;-69
2022/07/10 02:35:26;;;;;;;;;;;22.60;63.40;;;;;;5014721;28;19929;-69
2022/07/10 02:37:52;;;;;;;;;;;22.60;62.30;;;;;;5014973;28;19914;-69
2022/07/10 02:40:17;;;;;;;;;;;22.70;61.70;;;;;;5014752;28;20020;-67
2022/07/10 02:42:43;;;;;;;;;;;22.90;60.50;;;;;;5014808;28;19960;-72
2022/07/10 02:45:08;;;;;;;;;;;23.00;59.90;;;;;;5014636;28;19910;-69
2022/07/10 02:47:34;;;;;;;;;;;23.00;60.00;;;;;;5014559;28;19914;-66
2022/07/10 02:50:00;;;;;;;;;;;23.00;60.00;;;;;;5014422;28;19967;-68
2022/07/10 02:52:25;;;;;;;;;;;22.90;60.50;;;;;;5014410;28;19949;-68
2022/07/10 02:54:51;;;;;;;;;;;22.80;60.70;;;;;;5014527;28;19913;-67
2022/07/10 02:57:16;;;;;;;;;;;22.80;61.20;;;;;;5014534;28;19910;-62
2022/07/10 02:59:42;;;;;;;;;;;22.90;61.50;;;;;;5014521;28;19991;-60
2022/07/10 03:02:08;;;;;;;;;;;22.90;62.10;;;;;;5014387;28;20262;-62
2022/07/10 03:04:33;;;;;;;;;;;23.00;61.20;;;;;;5014171;28;19932;-61
2022/07/10 03:06:59;;;;;;;;;;;23.20;58.90;;;;;;5014522;28;19963;-61
2022/07/10 03:09:25;;;;;;;;;;;23.30;57.90;;;;;;5014121;28;19929;-60
2022/07/10 03:11:51;;;;;;;;;;;23.40;58.10;;;;;;5013123;28;19916;-60
2022/07/10 03:14:17;;;;;;;;;;;23.40;57.30;;;;;;5014237;28;19909;-61
2022/07/10 03:16:42;;;;;;;;;;;23.40;57.20;;;;;;5014176;28;19944;-61
2022/07/10 03:19:08;;;;;;;;;;;23.40;57.60;;;;;;5013944;28;20023;-61
2022/07/10 03:21:34;;;;;;;;;;;23.40;57.50;;;;;;5012810;28;19920;-61
2022/07/10 03:23:59;;;;;;;;;;;23.30;57.80;;;;;;5014115;28;19913;-60
2022/07/10 03:26:25;;;;;;;;;;;23.20;58.20;;;;;;5014119;28;19910;-62
2022/07/10 03:28:50;;;;;;;;;;;23.00;58.80;;;;;;5013905;28;20287;-63
2022/07/10 03:31:16;;;;;;;;;;;22.90;59.50;;;;;;5014038;28;19947;-60
2022/07/10 03:33:42;;;;;;;;;;;22.80;59.90;;;;;;5013775;28;19924;-63
2022/07/10 03:36:07;;;;;;;;;;;22.70;60.60;;;;;;5013885;28;19956;-64
2022/07/10 03:38:33;;;;;;;;;;;22.70;61.10;;;;;;5013652;28;19932;-61
2022/07/10 03:40:58;;;;;;;;;;;22.70;60.90;;;;;;5013813;28;20372;-62
2022/07/10 03:43:24;;;;;;;;;;;22.70;61.60;;;;;;5013890;28;19920;-62
2022/07/10 03:45:50;;;;;;;;;;;22.90;59.20;;;;;;5013490;28;19913;-62
2022/07/10 03:48:17;;;;;;;;;;;23.00;58.90;;;;;;5013727;28;19920;-69
2022/07/10 03:50:42;;;;;;;;;;;23.10;57.80;;;;;;5013506;28;19917;-71
2022/07/10 03:53:08;;;;;;;;;;;23.10;58.40;;;;;;5013795;28;20272;-70
2022/07/10 03:55:33;;;;;;;;;;;22.90;58.90;;;;;;5013395;28;19936;-69
2022/07/10 03:58:02;;;;;;;;;;;22.90;59.00;;;;;;5013475;28;19914;-71
2022/07/10 04:00:28;;;;;;;;;;;23.00;58.20;;;;;;5013470;28;20293;-70
2022/07/10 04:02:55;;;;;;;;;;;22.90;58.20;;;;;;5013174;28;19914;-72
2022/07/10 04:05:20;;;;;;;;;;;22.80;58.90;;;;;;5013240;28;19956;-70
2022/07/10 04:07:46;;;;;;;;;;;22.80;59.70;;;;;;5013282;28;19953;-71
2022/07/10 04:10:11;;;;;;;;;;;22.80;59.60;;;;;;5013156;28;19925;-71
2022/07/10 04:12:37;;;;;;;;;;;23.00;58.30;;;;;;5013342;28;19914;-70
2022/07/10 04:15:03;;;;;;;;;;;23.20;57.00;;;;;;5013095;28;19964;-70
2022/07/10 04:17:29;;;;;;;;;;;23.30;56.60;;;;;;5013166;28;20012;-70
2022/07/10 04:19:54;;;;;;;;;;;23.50;56.10;;;;;;5013196;28;20016;-70
2022/07/10 04:22:20;;;;;;;;;;;23.40;56.50;;;;;;5012999;28;19914;-71
2022/07/10 04:24:45;;;;;;;;;;;23.30;57.00;;;;;;5013065;28;20358;-69
2022/07/10 04:27:11;;;;;;;;;;;23.20;57.20;;;;;;5013046;28;19914;-71
2022/07/10 04:29:36;;;;;;;;;;;23.20;57.70;;;;;;5013002;28;20039;-72
2022/07/10 04:32:02;;;;;;;;;;;23.20;58.20;;;;;;5012785;28;20369;-72
2022/07/10 04:34:28;;;;;;;;;;;23.20;58.50;;;;;;5012956;28;20381;-70
2022/07/10 04:36:53;;;;;;;;;;;23.20;59.10;;;;;;5012853;28;20282;-72
2022/07/10 04:39:19;;;;;;;;;;;23.20;59.10;;;;;;5012872;28;20328;-71
2022/07/10 04:41:44;;;;;;;;;;;23.20;59.30;;;;;;5012662;28;19913;-70
2022/07/10 04:44:10;;;;;;;;;;;23.10;60.00;;;;;;5012703;28;20048;-71
2022/07/10 04:46:35;;;;;;;;;;;23.10;59.70;;;;;;5012679;28;19913;-70
2022/07/10 04:49:01;;;;;;;;;;;23.10;59.10;;;;;;5012534;28;20036;-67
2022/07/10 04:51:26;;;;;;;;;;;23.10;59.60;;;;;;5012753;28;19910;-66
2022/07/10 04:53:52;;;;;;;;;;;23.20;59.60;;;;;;5012654;28;19914;-62
2022/07/10 04:56:18;;;;;;;;;;;23.20;59.70;;;;;;5012643;28;19913;-63
2022/07/10 04:58:43;;;;;;;;;;;23.30;59.80;;;;;;5012895;28;20420;-71
2022/07/10 05:01:09;;;;;;;;;;;23.20;60.70;;;;;;5012392;28;20332;-71
2022/07/10 05:03:34;;;;;;;;;;;23.20;60.30;;;;;;5012491;28;19913;-72
2022/07/10 05:06:00;;;;;;;;;;;23.20;59.80;;;;;;5012270;28;20284;-71
2022/07/10 05:08:26;;;;;;;;;;;23.30;60.30;;;;;;5012260;28;19995;-70
2022/07/10 05:10:51;;;;;;;;;;;23.30;60.90;;;;;;5012481;28;19937;-70
2022/07/10 05:13:17;;;;;;;;;;;23.30;60.60;;;;;;5012334;28;19909;-68
2022/07/10 05:15:44;;;;;;;;;;;23.40;60.30;;;;;;5012260;28;20393;-72
2022/07/10 05:18:10;;;;;;;;;;;23.40;59.80;;;;;;5011956;28;19964;-65
2022/07/10 05:20:37;;;;;;;;;;;23.50;60.30;;;;;;5012281;28;19917;-71
2022/07/10 05:23:03;;;;;;;;;;;23.60;60.00;;;;;;5012384;28;19959;-68
2022/07/10 05:25:30;;;;;;;;;;;23.60;59.90;;;;;;5012012;28;19941;-68
2022/07/10 05:27:56;;;;;;;;;;;23.60;59.30;;;;;;5012306;28;20269;-62
2022/07/10 05:30:21;;;;;;;;;;;23.80;58.50;;;;;;5012064;28;19920;-65
2022/07/10 05:32:47;;;;;;;;;;;23.90;57.10;;;;;;5012379;28;19941;-64
2022/07/10 05:35:16;;;;;;;;;;;24.10;56.50;;;;;;5013294;28;19992;-64
2022/07/10 05:37:41;;;;;;;;;;;24.10;56.40;;;;;;5016302;28;19909;-63
2022/07/10 05:40:07;;;;;;;;;;;24.10;56.70;;;;;;5016133;28;20013;-62
2022/07/10 05:42:33;;;;;;;;;;;24.00;57.00;;;;;;5016029;28;19913;-63
2022/07/10 05:44:59;;;;;;;;;;;23.90;57.80;;;;;;5015833;28;19909;-66
2022/07/10 05:47:24;;;;;;;;;;;24.00;58.40;;;;;;5015877;28;20332;-65
2022/07/10 05:49:50;;;;;;;;;;;24.10;58.10;;;;;;5015967;28;19982;-68
2022/07/10 05:52:15;;;;;;;;;;;24.40;57.70;;;;;;5015716;28;19975;-61
2022/07/10 05:54:41;;;;;;;;;;;24.60;57.30;;;;;;5015883;28;20366;-70
2022/07/10 05:57:06;;;;;;;;;;;24.80;57.00;;;;;;5015734;28;19921;-68
2022/07/10 05:59:35;;;;;;;;;;;24.90;57.10;;;;;;5016029;28;19922;-70
2022/07/10 06:02:01;;;;;;;;;;;25.10;57.00;;;;;;5015450;28;19914;-68
2022/07/10 06:04:27;;;;;;;;;;;25.20;57.10;;;;;;5015539;28;20044;-69
2022/07/10 06:06:52;;;;;;;;;;;25.50;57.10;;;;;;5016187;28;19961;-67
2022/07/10 06:09:18;;;;;;;;;;;25.80;55.50;;;;;;5015605;28;19965;-65
2022/07/10 06:11:45;;;;;;;;;;;26.00;54.80;;;;;;5015529;28;19916;-62
2022/07/10 06:14:11;;;;;;;;;;;26.30;54.10;;;;;;5015515;28;19956;-59
2022/07/10 06:16:36;;;;;;;;;;;26.40;53.20;;;;;;5015684;28;19960;-58
2022/07/10 06:19:02;;;;;;;;;;;26.60;52.80;;;;;;5015479;28;19921;-57
2022/07/10 06:21:27;;;;;;;;;;;26.90;52.70;;;;;;5015317;28;19914;-58
2022/07/10 06:23:53;;;;;;;;;;;27.00;51.80;;;;;;5015301;28;19913;-58
2022/07/10 06:26:19;;;;;;;;;;;27.00;51.10;;;;;;5014446;28;19921;-64
2022/07/10 06:28:44;;;;;;;;;;;27.10;50.90;;;;;;5014862;28;20433;-59
2022/07/10 06:31:10;;;;;;;;;;;27.20;50.40;;;;;;5015171;28;19965;-59
2022/07/10 06:33:36;;;;;;;;;;;27.20;49.60;;;;;;5015051;28;20348;-59
2022/07/10 06:36:02;;;;;;;;;;;27.10;49.70;;;;;;5015046;28;19909;-59
2022/07/10 06:38:27;;;;;;;;;;;27.20;49.70;;;;;;5014956;28;19972;-58
2022/07/10 06:40:53;;;;;;;;;;;27.30;49.20;;;;;;5014904;28;19984;-59
2022/07/10 06:43:19;;;;;;;;;;;27.40;48.50;;;;;;5014881;28;19932;-61
2022/07/10 06:45:44;;;;;;;;;;;27.30;48.60;;;;;;5014783;28;19910;-58
2022/07/10 06:48:10;;;;;;;;;;;27.30;48.60;;;;;;5014788;28;20430;-58
2022/07/10 06:50:36;;;;;;;;;;;27.50;48.10;;;;;;5014897;28;20357;-58
2022/07/10 06:53:02;;;;;;;;;;;27.70;47.50;;;;;;5014768;28;20393;-60
2022/07/10 06:55:28;;;;;;;;;;;28.00;47.00;;;;;;5014965;28;20366;-60
2022/07/10 06:57:54;;;;;;;;;;;28.30;45.90;;;;;;5014508;28;19914;-63
2022/07/10 07:00:19;;;;;;;;;;;28.50;45.50;;;;;;5015893;28;19927;-61
2022/07/10 07:02:45;;;;;;;;;;;28.70;44.80;;;;;;5016495;28;19910;-61
2022/07/10 07:05:11;;;;;;;;;;;28.90;44.80;;;;;;5016903;28;19910;-60
2022/07/10 07:07:36;;;;;;;;;;;29.00;46.00;;;;;;5016237;28;19920;-60
2022/07/10 07:10:03;;;;;;;;;;;29.10;47.00;;;;;;5014676;28;19926;-59
2022/07/10 07:12:28;;;;;;;;;;;29.00;47.60;;;;;;5014447;28;20000;-61
2022/07/10 07:14:54;;;;;;;;;;;28.80;47.00;;;;;;5014141;28;20008;-59
2022/07/10 07:17:24;;;;;;;;;;;28.50;47.70;;;;;;5014482;28;19920;-59
2022/07/10 07:25:18;;;;;;;;;;;28.00;48.80;;;;;;5014462;28;20360;-58
2022/07/10 07:27:44;;;;;;;;;;;28.10;49.00;;;;;;5014298;28;19910;-59
2022/07/10 07:30:11;;;;;;;;;;;28.20;48.70;;;;;;5014129;28;20424;-59
2022/07/10 07:32:36;;;;;;;;;;;28.20;48.50;;;;;;5014105;28;19914;-59
2022/07/10 07:35:02;;;;;;;;;;;28.10;49.30;;;;;;5013943;28;20000;-58
2022/07/10 07:37:35;;;;;;;;;;;27.80;50.70;;;;;;5013808;28;20029;-58
2022/07/10 07:40:00;;;;;;;;;;;27.70;51.00;;;;;;5013834;28;19972;-59
2022/07/10 07:42:26;;;;;;;;;;;27.60;51.00;;;;;;5013828;28;19909;-59
2022/07/10 07:44:51;;;;;;;;;;;27.40;51.40;;;;;;5013776;28;20317;-61
2022/07/10 07:47:17;;;;;;;;;;;27.40;51.50;;;;;;5013830;28;20332;-59
2022/07/10 07:49:42;;;;;;;;;;;27.40;51.50;;;;;;5013789;28;19913;-60
2022/07/10 07:52:08;;;;;;;;;;;27.40;51.40;;;;;;5013585;28;19994;-58
2022/07/10 07:54:33;;;;;;;;;;;27.60;52.00;;;;;;5013450;28;19914;-63
2022/07/10 07:56:59;;;;;;;;;;;27.70;51.50;;;;;;5013618;28;19956;-59
2022/07/10 07:59:24;;;;;;;;;;;27.70;51.10;;;;;;5013085;28;20015;-60
2022/07/10 08:01:50;;;;;;;;;;;27.80;51.10;;;;;;5013449;28;19910;-57
2022/07/10 08:04:16;;;;;;;;;;;27.70;51.00;;;;;;5013405;28;20009;-57
2022/07/10 08:06:41;;;;;;;;;;;27.60;50.90;;;;;;5013100;28;19920;-57
2022/07/10 08:09:07;;;;;;;;;;;27.60;51.20;;;;;;5007922;28;19921;-57
2022/07/10 08:11:32;;;;;;;;;;;27.30;51.60;;;;;;4994798;28;20366;-60
2022/07/10 08:13:58;;;;;;;;;;;27.20;52.10;;;;;;5013697;28;19925;-57
2022/07/10 08:16:23;;;;;;;;;;;27.30;51.80;;;;;;5010176;28;20600;-58
2022/07/10 08:18:50;;;;;;;;;;;27.30;51.80;;;;;;5002068;28;19969;-57
2022/07/10 08:21:15;;;;;;;;;;;27.10;52.20;;;;;;5012904;28;19968;-56
2022/07/10 08:23:41;;;;;;;;;;;27.00;52.50;;;;;;5013046;28;20010;-57
2022/07/10 08:26:07;;;;;;;;;;;27.10;52.60;;;;;;5013069;28;19910;-58
2022/07/10 08:28:32;;;;;;;;;;;27.10;53.00;;;;;;5012767;28;20390;-60
2022/07/10 08:30:58;;;;;;;;;;;27.20;52.60;;;;;;5012939;28;19956;-61
2022/07/10 08:33:23;;;;;;;;;;;27.30;52.10;;;;;;5012792;28;19916;-61
2022/07/10 08:35:49;;;;;;;;;;;27.60;52.00;;;;;;5012804;28;19913;-60
2022/07/10 08:38:14;;;;;;;;;;;27.70;51.60;;;;;;5012745;28;19909;-60
2022/07/10 08:40:40;;;;;;;;;;;28.00;51.10;;;;;;5012738;28;19917;-56
2022/07/10 08:43:06;;;;;;;;;;;28.10;48.30;;;;;;5005703;28;19941;-60
2022/07/10 08:45:35;;;;;;;;;;;28.20;48.50;;;;;;4997257;28;19913;-60
2022/07/10 08:48:05;;;;;;;;;;;28.30;49.00;;;;;;5012666;28;19917;-57
2022/07/10 08:50:32;;;;;;;;;;;28.20;47.20;;;;;;5012546;28;20324;-61
2022/07/10 08:53:16;;;;;;;;;;;28.30;46.90;;;;;;5012630;28;19910;-61
2022/07/10 08:55:42;;;;;;;;;;;28.30;47.30;;;;;;5012469;28;19932;-60
2022/07/10 08:58:11;;;;;;;;;;;28.10;47.50;;;;;;5012515;28;19993;-65
2022/07/10 09:00:37;;;;;;;;;;;28.10;46.10;;;;;;5012346;28;19918;-59
2022/07/10 09:03:03;;;;;;;;;;;28.10;46.80;;;;;;5012179;28;19920;-61
2022/07/10 09:05:28;;;;;;;;;;;28.20;45.60;;;;;;5012277;28;20363;-58
2022/07/10 09:07:54;;;;;;;;;;;28.30;46.30;;;;;;5012404;28;19918;-61
2022/07/10 09:10:21;;;;;;;;;;;28.30;46.30;;;;;;5011375;28;19925;-64
2022/07/10 09:12:54;;;;;;;;;;;28.40;45.00;;;;;;5012138;28;20359;-57
2022/07/10 09:15:22;;;;;;;;;;;28.40;44.20;;;;;;5012028;28;19920;-61
2022/07/10 09:17:50;;;;;;;;;;;28.40;46.70;;;;;;5012435;28;19910;-63
2022/07/10 09:20:25;;;;;;;;;;;28.40;45.80;;;;;;5011270;28;20008;-59
2022/07/10 09:22:51;;;;;;;;;;;28.50;44.00;;;;;;5011812;28;20000;-59
2022/07/10 09:25:17;;;;;;;;;;;28.50;45.10;;;;;;5012055;28;20045;-59
2022/07/10 09:27:53;;;;;;;;;;;28.50;45.70;;;;;;5012253;28;19918;-59
2022/07/10 09:30:39;;;;;;;;;;;28.60;44.90;;;;;;5011934;28;20392;-59
2022/07/10 09:33:14;;;;;;;;;;;28.60;43.20;;;;;;5011885;28;19910;-58
2022/07/10 09:36:06;;;;;;;;;;;28.60;41.50;;;;;;5011998;28;19921;-58
2022/07/10 09:38:44;;;;;;;;;;;28.50;41.20;;;;;;5011889;28;20293;-58
2022/07/10 09:41:14;;;;;;;;;;;28.50;40.10;;;;;;5000126;28;20346;-59
2022/07/10 09:43:46;;;;;;;;;;;28.40;41.70;;;;;;5012045;28;19968;-61
2022/07/10 09:46:12;;;;;;;;;;;28.30;40.70;;;;;;5011982;28;19911;-59
2022/07/10 09:48:37;;;;;;;;;;;28.30;40.30;;;;;;5011850;28;19921;-59
2022/07/10 09:51:09;;;;;;;;;;;28.30;37.20;;;;;;5011823;28;19923;-58
2022/07/10 09:53:37;;;;;;;;;;;28.30;35.60;;;;;;5011953;28;20328;-58
2022/07/10 09:56:05;;;;;;;;;;;28.30;36.00;;;;;;5011740;28;19909;-59
2022/07/10 09:58:32;;;;;;;;;;;28.30;36.60;;;;;;5011827;28;20040;-58
2022/07/10 10:00:58;;;;;;;;;;;28.30;36.20;;;;;;5011791;28;20071;-60
2022/07/10 10:03:24;;;;;;;;;;;28.20;36.50;;;;;;5012345;28;20413;-59
2022/07/10 10:06:00;;;;;;;;;;;28.10;37.60;;;;;;5011601;28;19922;-60
2022/07/10 10:08:46;;;;;;;;;;;28.00;38.50;;;;;;5011669;28;19925;-61
2022/07/10 10:11:18;;;;;;;;;;;27.90;38.10;;;;;;5011282;28;20336;-60
2022/07/10 10:13:44;;;;;;;;;;;27.90;38.00;;;;;;5011766;28;20404;-60
2022/07/10 10:16:10;;;;;;;;;;;27.90;38.60;;;;;;5011816;28;19910;-61
2022/07/10 10:18:36;;;;;;;;;;;27.90;38.70;;;;;;5011546;28;19977;-59
2022/07/10 10:21:06;;;;;;;;;;;27.90;36.60;;;;;;5012805;28;20051;-62
2022/07/10 10:23:32;;;;;;;;;;;27.90;36.10;;;;;;5015283;28;19932;-59
2022/07/10 10:25:58;;;;;;;;;;;27.90;36.70;;;;;;5014552;28;19914;-60
2022/07/10 10:28:25;;;;;;;;;;;27.80;35.20;;;;;;5014600;28;19920;-62
2022/07/10 10:30:55;;;;;;;;;;;27.80;35.00;;;;;;5014617;28;19914;-62
2022/07/10 10:33:37;;;;;;;;;;;27.80;34.60;;;;;;5014526;28;19913;-63
2022/07/10 10:36:03;;;;;;;;;;;27.80;34.00;;;;;;5014745;28;20396;-61
2022/07/10 10:38:53;;;;;;;;;;;27.80;31.80;;;;;;5014419;28;19910;-66
2022/07/10 10:41:22;;;;;;;;;;;27.70;32.90;;;;;;5006129;28;20404;-67
2022/07/10 10:44:06;;;;;;;;;;;27.70;31.80;;;;;;5014702;28;20366;-62
2022/07/10 10:46:32;;;;;;;;;;;27.70;31.70;;;;;;5014805;28;19932;-66
2022/07/10 10:49:08;;;;;;;;;;;27.70;31.10;;;;;;5014684;28;19913;-64
2022/07/10 10:51:52;;;;;;;;;;;27.70;33.20;;;;;;5013286;28;19909;-63
2022/07/10 10:54:17;;;;;;;;;;;27.80;31.70;;;;;;5014475;28;19909;-62
2022/07/10 10:56:43;;;;;;;;;;;27.90;30.50;;;;;;5014501;28;19918;-64
2022/07/10 10:59:08;;;;;;;;;;;27.80;33.30;;;;;;5010501;28;19926;-61
2022/07/10 11:01:34;;;;;;;;;;;27.80;32.50;;;;;;4998155;28;19910;-64
2022/07/10 11:04:08;;;;;;;;;;;27.90;33.80;;;;;;4998217;28;20281;-62
2022/07/10 11:06:40;;;;;;;;;;;28.00;33.00;;;;;;5011403;28;19913;-64
2022/07/10 11:09:25;;;;;;;;;;;28.00;31.60;;;;;;5013616;28;19928;-63
2022/07/10 11:12:00;;;;;;;;;;;28.00;34.00;;;;;;5009888;28;19917;-63
2022/07/10 11:14:28;;;;;;;;;;;28.00;33.10;;;;;;5012564;28;21521;-61
2022/07/10 11:16:57;;;;;;;;;;;28.00;33.50;;;;;;5013898;28;19910;-63
2022/07/10 11:19:23;;;;;;;;;;;27.90;31.20;;;;;;5013541;28;20423;-63
2022/07/10 11:21:52;;;;;;;;;;;27.90;32.00;;;;;;5013757;28;19909;-66
2022/07/10 11:24:26;;;;;;;;;;;27.90;32.00;;;;;;5013376;28;19913;-65
2022/07/10 11:26:58;;;;;;;;;;;27.90;31.20;;;;;;5013437;28;20262;-64
2022/07/10 11:29:24;;;;;;;;;;;27.90;31.20;;;;;;5013270;28;19909;-63
2022/07/10 11:31:53;;;;;;;;;;;27.80;31.80;;;;;;5013188;28;19917;-69
2022/07/10 11:34:19;;;;;;;;;;;27.90;32.50;;;;;;5012692;28;20004;-63
2022/07/10 11:36:47;;;;;;;;;;;27.90;33.30;;;;;;5012652;28;19993;-65
2022/07/10 11:39:13;;;;;;;;;;;27.90;32.80;;;;;;5013388;28;19944;-67
2022/07/10 11:41:43;;;;;;;;;;;27.90;32.70;;;;;;5012961;28;20271;-65
2022/07/10 11:44:13;;;;;;;;;;;27.80;32.90;;;;;;5013440;28;19913;-67
2022/07/10 11:46:38;;;;;;;;;;;27.90;31.70;;;;;;5012857;28;19914;-67
2022/07/10 11:49:05;;;;;;;;;;;27.80;32.50;;;;;;5013354;28;19914;-66
2022/07/10 11:51:39;;;;;;;;;;;27.80;32.60;;;;;;5013088;28;20317;-63
2022/07/10 11:54:12;;;;;;;;;;;27.90;33.00;;;;;;5013238;28;20325;-68
2022/07/10 11:56:46;;;;;;;;;;;27.90;31.00;;;;;;5013055;28;20329;-63
2022/07/10 11:59:12;;;;;;;;;;;27.90;31.50;;;;;;5012258;28;19917;-63
2022/07/10 12:01:42;;;;;;;;;;;27.90;31.70;;;;;;4998992;28;19910;-63
2022/07/10 12:04:09;;;;;;;;;;;28.00;29.80;;;;;;5000740;28;19917;-63
2022/07/10 12:06:39;;;;;;;;;;;27.90;29.70;;;;;;5000053;28;20370;-64
2022/07/10 12:09:08;;;;;;;;;;;27.90;31.70;;;;;;4995441;28;19921;-66
2022/07/10 12:11:34;;;;;;;;;;;27.80;31.20;;;;;;4997830;28;19910;-62
2022/07/10 12:14:09;;;;;;;;;;;27.80;31.40;;;;;;4999475;28;20274;-71
2022/07/10 12:16:35;;;;;;;;;;;27.80;32.60;;;;;;4996949;28;19910;-70
2022/07/10 12:19:01;;;;;;;;;;;27.80;31.00;;;;;;4996414;28;19960;-69
2022/07/10 12:21:26;;;;;;;;;;;27.80;30.30;;;;;;4996958;28;19937;-67
2022/07/10 12:23:52;;;;;;;;;;;27.90;31.30;;;;;;4997474;28;19921;-71
2022/07/10 12:26:18;;;;;;;;;;;27.90;31.50;;;;;;4996571;28;19910;-68
2022/07/10 12:28:53;;;;;;;;;;;27.90;32.30;;;;;;5003300;28;19909;-67
2022/07/10 12:31:20;;;;;;;;;;;28.00;32.50;;;;;;5000686;28;20320;-68
2022/07/10 12:33:50;;;;;;;;;;;28.00;33.60;;;;;;5012486;28;19909;-71
2022/07/10 12:36:15;;;;;;;;;;;28.00;34.60;;;;;;5013870;28;19976;-61
2022/07/10 12:38:41;;;;;;;;;;;28.00;34.40;;;;;;5016090;28;19941;-64
2022/07/10 12:41:11;;;;;;;;;;;27.90;34.60;;;;;;5013769;28;20397;-63
2022/07/10 12:43:36;;;;;;;;;;;27.90;35.30;;;;;;5009171;28;19917;-65
2022/07/10 12:46:15;;;;;;;;;;;27.90;36.00;;;;;;5012475;28;19921;-62
2022/07/10 12:49:01;;;;;;;;;;;27.80;36.40;;;;;;5010951;28;20528;-64
2022/07/10 12:51:28;;;;;;;;;;;27.80;37.20;;;;;;5001117;28;19910;-63
2022/07/10 12:53:54;;;;;;;;;;;27.80;37.40;;;;;;5011570;28;19909;-62
2022/07/10 12:56:30;;;;;;;;;;;27.80;36.30;;;;;;5011411;28;19910;-67
2022/07/10 12:58:56;;;;;;;;;;;27.70;36.10;;;;;;5011216;28;19913;-64
2022/07/10 13:01:21;;;;;;;;;;;27.70;37.60;;;;;;5011471;28;20381;-67
2022/07/10 13:03:47;;;;;;;;;;;27.70;38.30;;;;;;5004922;28;19914;-72
2022/07/10 13:06:34;;;;;;;;;;;27.60;39.50;;;;;;5007847;28;20040;-68
2022/07/10 13:09:00;;;;;;;;;;;27.60;40.60;;;;;;5010431;28;20273;-62
2022/07/10 13:11:27;;;;;;;;;;;27.60;38.80;;;;;;5012355;28;20013;-65
2022/07/10 13:13:52;;;;;;;;;;;27.60;39.60;;;;;;5011579;28;20044;-65
2022/07/10 13:16:18;;;;;;;;;;;27.70;39.10;;;;;;5011720;28;19910;-67
2022/07/10 13:18:44;;;;;;;;;;;27.60;38.40;;;;;;5011666;28;19909;-67
2022/07/10 13:21:10;;;;;;;;;;;27.60;37.80;;;;;;5011604;28;19917;-64
2022/07/10 13:23:36;;;;;;;;;;;27.60;38.00;;;;;;5011849;28;19913;-67
2022/07/10 13:26:03;;;;;;;;;;;27.70;37.90;;;;;;5012062;28;20353;-66
2022/07/10 13:28:29;;;;;;;;;;;27.70;37.90;;;;;;5012391;28;19968;-66
2022/07/10 13:30:54;;;;;;;;;;;27.70;37.40;;;;;;5012275;28;20271;-67
2022/07/10 13:33:20;;;;;;;;;;;27.70;37.70;;;;;;5012039;28;20386;-65
2022/07/10 13:35:46;;;;;;;;;;;27.80;37.50;;;;;;5011357;28;19949;-66
2022/07/10 13:38:11;;;;;;;;;;;27.70;36.30;;;;;;5011210;28;19921;-64
2022/07/10 13:40:37;;;;;;;;;;;27.70;36.50;;;;;;5010858;28;19924;-69
2022/07/10 13:43:03;;;;;;;;;;;27.70;36.90;;;;;;5011140;28;19959;-64
2022/07/10 13:45:33;;;;;;;;;;;27.70;36.60;;;;;;5010989;28;19910;-65
2022/07/10 13:47:59;;;;;;;;;;;27.80;36.70;;;;;;5011424;28;19917;-68
2022/07/10 13:50:25;;;;;;;;;;;27.80;35.30;;;;;;5011615;28;19917;-65
2022/07/10 13:52:50;;;;;;;;;;;27.80;34.00;;;;;;5011582;28;19921;-64
2022/07/10 13:55:16;;;;;;;;;;;27.70;34.50;;;;;;5011380;28;19918;-67
2022/07/10 13:57:42;;;;;;;;;;;27.60;34.40;;;;;;5015069;28;19909;-70
2022/07/10 14:00:08;;;;;;;;;;;27.60;34.30;;;;;;5015278;28;19984;-63
2022/07/10 14:02:33;;;;;;;;;;;27.60;34.60;;;;;;5015647;28;19914;-69
2022/07/10 14:04:59;;;;;;;;;;;27.70;36.20;;;;;;4997649;28;19920;-63
2022/07/10 14:07:24;;;;;;;;;;;27.70;35.50;;;;;;5005952;28;19988;-69
2022/07/10 14:09:50;;;;;;;;;;;27.80;35.10;;;;;;5001187;28;20286;-65
2022/07/10 14:12:16;;;;;;;;;;;27.70;35.30;;;;;;5008209;28;19964;-61
2022/07/10 14:14:41;;;;;;;;;;;27.70;35.60;;;;;;5009879;28;19909;-69
2022/07/10 14:17:07;;;;;;;;;;;27.70;34.50;;;;;;5006478;28;19913;-60
2022/07/10 14:19:33;;;;;;;;;;;27.80;35.80;;;;;;5005160;28;20026;-61
2022/07/10 14:21:59;;;;;;;;;;;27.80;32.90;;;;;;5001745;28;19914;-68
2022/07/10 14:24:25;;;;;;;;;;;27.90;34.40;;;;;;5014211;28;19959;-71